Time;durP1;ratioP1;P1;durP2;ratioP2;P2;SDS_P1;SDS_P2;PMS_P1;PMS_P2;Temp;Humidity;BMP_temperature;BMP_pressure;BME280_temperature;BME280_humidity;BME280_pressure;Samples;Min_cycle;Max_cycle;Signal;HPM_P1;HPM_P2
2022/11/02 03:02:59;;;;;;;11.00;10.30;;;8.60;99.90;;;;;;4968403;23;20238;-81
2022/11/02 03:05:29;;;;;;;10.20;9.50;;;8.60;99.90;;;;;;4935819;29;20247;-81
2022/11/02 03:08:00;;;;;;;10.40;9.63;;;8.60;99.90;;;;;;4935775;29;20294;-81
2022/11/02 03:10:32;;;;;;;10.87;10.07;;;8.50;99.90;;;;;;4928874;28;20196;-81
2022/11/02 03:13:21;;;;;;;10.50;9.80;;;8.40;99.90;;;;;;4939147;29;20290;-81
2022/11/02 03:15:53;;;;;;;10.30;9.40;;;8.40;99.90;;;;;;4940446;29;20245;-81
2022/11/02 03:18:30;;;;;;;11.17;10.23;;;8.30;99.90;;;;;;4933975;29;20214;-81
2022/11/02 03:21:05;;;;;;;11.77;10.97;;;8.30;99.90;;;;;;4929983;29;20231;-80
2022/11/02 03:23:38;;;;;;;11.17;10.13;;;8.30;99.90;;;;;;4928058;29;20583;-82
2022/11/02 03:26:09;;;;;;;11.70;10.80;;;8.20;99.90;;;;;;4935411;29;20247;-81
2022/11/02 03:28:52;;;;;;;11.83;10.93;;;8.10;99.90;;;;;;4935142;29;20199;-81
2022/11/02 03:31:28;;;;;;;11.20;10.50;;;8.10;99.90;;;;;;4935187;29;20226;-81
2022/11/02 03:34:05;;;;;;;12.17;11.27;;;8.10;99.90;;;;;;4931356;29;20594;-79
2022/11/02 03:36:37;;;;;;;12.77;11.70;;;8.20;99.90;;;;;;4933363;29;20670;-80
2022/11/02 03:39:07;;;;;;;12.07;10.93;;;8.10;99.90;;;;;;4935123;29;20200;-81
2022/11/02 03:41:38;;;;;;;12.03;11.00;;;8.10;99.90;;;;;;4935449;29;20670;-84
2022/11/02 03:44:09;;;;;;;13.03;12.13;;;8.10;99.90;;;;;;4934006;29;20580;-80
2022/11/02 03:46:39;;;;;;;12.30;11.40;;;8.10;99.90;;;;;;4940196;29;20199;-80
2022/11/02 03:49:12;;;;;;;12.97;12.17;;;8.10;99.90;;;;;;4937835;29;20203;-81
2022/11/02 03:51:43;;;;;;;13.50;12.40;;;8.10;99.90;;;;;;4934540;29;20617;-82
2022/11/02 03:54:17;;;;;;;13.77;12.67;;;8.10;99.90;;;;;;4935792;29;20294;-82
2022/11/02 03:56:48;;;;;;;14.23;13.03;;;8.10;99.90;;;;;;4935217;29;20668;-82
2022/11/02 03:59:15;;;;;;;13.73;12.73;;;8.10;99.90;;;;;;4935938;29;20203;-82
2022/11/02 04:01:46;;;;;;;13.50;12.50;;;8.10;99.90;;;;;;4928234;29;20544;-82
2022/11/02 04:04:15;;;;;;;14.10;12.97;;;8.10;99.90;;;;;;4940752;29;20305;-81
2022/11/02 04:06:47;;;;;;;15.27;13.83;;;8.20;99.90;;;;;;4938394;29;20254;-82
2022/11/02 04:09:14;;;;;;;14.10;13.03;;;8.20;99.90;;;;;;4938165;29;20579;-81
2022/11/02 04:14:38;;;;;;;15.00;14.00;;;8.20;99.90;;;;;;4930058;29;20214;-84
2022/11/02 04:19:57;;;;;;;13.87;12.77;;;8.20;99.90;;;;;;4935198;29;20198;-82
2022/11/02 04:25:19;;;;;;;14.60;13.60;;;8.20;99.90;;;;;;4934287;29;20281;-82
2022/11/02 04:28:09;;;;;;;13.80;12.80;;;8.20;99.90;;;;;;4942755;28;20210;-82
2022/11/02 04:30:45;;;;;;;13.73;12.83;;;8.20;99.90;;;;;;4933057;28;20253;-83
2022/11/02 04:36:08;;;;;;;14.33;13.23;;;8.20;99.90;;;;;;4939859;29;20214;-80
2022/11/02 04:38:40;;;;;;;14.57;13.57;;;8.20;99.90;;;;;;4940739;29;20297;-81
2022/11/02 04:41:43;;;;;;;13.97;13.10;;;8.20;99.90;;;;;;4937260;29;20313;-83
2022/11/02 04:44:27;;;;;;;15.30;14.10;;;8.20;99.90;;;;;;4937476;29;20198;-82
2022/11/02 04:47:14;;;;;;;16.20;14.70;;;8.20;99.90;;;;;;4940374;29;20238;-82
2022/11/02 04:49:42;;;;;;;14.97;13.83;;;8.10;99.90;;;;;;4939586;29;20294;-81
2022/11/02 04:52:15;;;;;;;15.20;14.07;;;8.10;99.90;;;;;;4938982;29;20268;-81
2022/11/02 04:54:47;;;;;;;14.97;13.87;;;8.10;99.90;;;;;;4939567;29;20657;-82
2022/11/02 04:57:13;;;;;;;15.00;14.00;;;8.10;99.90;;;;;;4939414;29;20655;-83
2022/11/02 04:59:40;;;;;;;15.30;14.30;;;8.00;99.90;;;;;;4939154;29;20345;-82
2022/11/02 05:02:08;;;;;;;15.43;14.33;;;8.00;99.90;;;;;;4938980;29;20237;-82
2022/11/02 05:04:35;;;;;;;14.37;13.37;;;7.90;99.90;;;;;;4939622;29;20682;-82
2022/11/02 05:07:05;;;;;;;15.00;14.00;;;7.80;99.90;;;;;;4939406;29;20191;-83
2022/11/02 05:09:36;;;;;;;14.40;13.30;;;7.80;99.90;;;;;;4939256;29;20289;-82
2022/11/02 05:12:05;;;;;;;13.50;12.60;;;7.80;99.90;;;;;;4939393;29;20253;-83
2022/11/02 05:14:33;;;;;;;15.00;13.70;;;7.70;99.90;;;;;;4939128;29;20205;-83
2022/11/02 05:17:01;;;;;;;15.20;14.10;;;7.70;99.90;;;;;;4939436;29;20201;-82
2022/11/02 05:19:28;;;;;;;14.17;13.00;;;7.70;99.90;;;;;;4938939;29;20230;-83
2022/11/02 05:21:55;;;;;;;14.40;13.30;;;7.60;99.90;;;;;;4940388;29;20702;-82
2022/11/02 05:24:24;;;;;;;13.20;12.30;;;7.60;99.90;;;;;;4939289;29;20697;-82
2022/11/02 05:26:52;;;;;;;14.90;14.00;;;7.50;99.90;;;;;;4938666;29;20202;-82
2022/11/02 05:29:19;;;;;;;14.40;13.30;;;7.50;99.90;;;;;;4939275;29;20191;-82
2022/11/02 05:31:47;;;;;;;13.97;13.07;;;7.40;99.90;;;;;;4939117;29;20233;-82
2022/11/02 05:34:15;;;;;;;15.10;14.07;;;7.40;99.90;;;;;;4938880;29;20262;-82
2022/11/02 05:36:42;;;;;;;14.10;13.00;;;7.40;99.90;;;;;;4939368;29;20662;-81
2022/11/02 05:39:09;;;;;;;15.20;14.10;;;7.40;99.90;;;;;;4939004;29;20215;-81
2022/11/02 05:41:36;;;;;;;13.93;13.00;;;7.40;99.90;;;;;;4938328;29;20663;-81
2022/11/02 05:44:04;;;;;;;14.63;13.53;;;7.30;99.90;;;;;;4938921;29;20209;-81
2022/11/02 05:46:32;;;;;;;14.77;13.63;;;7.30;99.90;;;;;;4938152;29;20209;-79
2022/11/02 05:48:59;;;;;;;14.20;13.23;;;7.30;99.90;;;;;;4938528;29;20254;-82
2022/11/02 05:51:26;;;;;;;15.13;13.73;;;7.30;99.90;;;;;;4939634;29;20736;-82
2022/11/02 05:53:52;;;;;;;15.37;13.80;;;7.30;99.90;;;;;;4940082;29;20570;-83
2022/11/02 05:56:19;;;;;;;14.17;13.27;;;7.30;99.90;;;;;;4938212;29;20608;-83
2022/11/02 05:58:46;;;;;;;15.63;14.37;;;7.30;99.90;;;;;;4938507;29;20217;-81
2022/11/02 06:01:14;;;;;;;14.63;13.43;;;7.20;99.90;;;;;;4937852;29;20281;-82
2022/11/02 06:03:41;;;;;;;5.77;5.23;;;7.20;99.90;;;;;;4939244;29;20224;-82
2022/11/02 06:06:11;;;;;;;7.10;5.13;;;7.20;99.90;;;;;;4938039;29;20666;-83
2022/11/02 06:08:39;;;;;;;11.87;5.90;;;7.20;99.90;;;;;;4938322;29;20674;-82
2022/11/02 06:11:06;;;;;;;8.53;5.83;;;7.20;99.90;;;;;;4939045;29;20209;-82
2022/11/02 06:13:34;;;;;;;7.37;5.40;;;7.20;99.90;;;;;;4938283;29;20201;-82
2022/11/02 06:16:01;;;;;;;6.47;5.43;;;7.20;99.90;;;;;;4938208;29;20273;-81
2022/11/02 06:18:30;;;;;;;10.80;6.43;;;7.20;99.90;;;;;;4939645;29;20209;-82
2022/11/02 06:20:57;;;;;;;7.60;5.30;;;7.20;99.90;;;;;;4938345;29;20862;-82
2022/11/02 06:23:24;;;;;;;7.03;5.37;;;7.30;99.90;;;;;;4938235;29;20226;-82
2022/11/02 06:25:52;;;;;;;6.50;5.27;;;7.30;99.90;;;;;;4938473;29;20197;-82
2022/11/02 06:28:19;;;;;;;7.40;5.63;;;7.30;99.90;;;;;;4939040;29;20269;-83
2022/11/02 06:30:46;;;;;;;9.33;6.00;;;7.30;99.90;;;;;;4937102;29;20317;-82
2022/11/02 06:33:12;;;;;;;8.33;6.70;;;7.40;99.90;;;;;;4937743;29;20602;-82
2022/11/02 06:35:44;;;;;;;13.07;8.47;;;7.50;99.90;;;;;;4937296;29;20217;-82
2022/11/02 06:38:11;;;;;;;9.23;7.03;;;7.60;99.90;;;;;;4937918;29;20205;-82
2022/11/02 06:40:38;;;;;;;11.47;10.47;;;7.70;99.90;;;;;;4936993;29;20211;-82
2022/11/02 06:43:05;;;;;;;12.03;11.03;;;7.80;99.90;;;;;;4937629;29;20574;-82
2022/11/02 06:45:32;;;;;;;11.27;10.43;;;7.90;99.90;;;;;;4934420;29;20210;-83
2022/11/02 06:47:59;;;;;;;8.10;6.30;;;8.10;99.90;;;;;;4937330;29;20210;-82
2022/11/02 06:50:26;;;;;;;7.20;6.13;;;8.20;99.90;;;;;;4937732;29;20229;-82
2022/11/02 06:52:54;;;;;;;14.97;13.77;;;8.30;99.90;;;;;;4937273;29;20202;-83
2022/11/02 06:55:21;;;;;;;15.37;13.90;;;8.30;99.90;;;;;;4938283;29;20229;-80
2022/11/02 06:57:48;;;;;;;14.17;13.17;;;8.40;99.90;;;;;;4937521;29;20207;-82
2022/11/02 07:00:17;;;;;;;13.70;12.70;;;8.50;99.90;;;;;;4938084;29;20198;-83
2022/11/02 07:02:44;;;;;;;14.00;13.10;;;8.50;99.90;;;;;;4937092;29;20286;-83
2022/11/02 07:05:11;;;;;;;13.77;12.70;;;8.50;99.90;;;;;;4936912;29;20195;-82
2022/11/02 07:07:38;;;;;;;12.57;11.67;;;8.60;99.90;;;;;;4931534;29;20199;-82
2022/11/02 07:10:09;;;;;;;13.67;12.77;;;8.60;99.90;;;;;;4936415;29;20286;-82
2022/11/02 07:12:36;;;;;;;13.67;12.57;;;8.60;99.90;;;;;;4937563;29;20226;-82
2022/11/02 07:15:04;;;;;;;12.83;11.83;;;8.70;99.90;;;;;;4936530;29;20266;-83
2022/11/02 07:17:31;;;;;;;13.30;12.20;;;8.70;99.90;;;;;;4936187;29;20250;-82
2022/11/02 07:19:57;;;;;;;13.40;12.60;;;8.80;99.90;;;;;;4937267;29;20214;-83
2022/11/02 07:22:24;;;;;;;13.43;12.53;;;9.00;99.90;;;;;;4937080;29;20648;-82
2022/11/02 07:24:51;;;;;;;14.03;13.00;;;9.00;99.90;;;;;;4936778;29;20586;-83
2022/11/02 07:27:19;;;;;;;5.95;5.45;;;9.20;99.90;;;;;;4936313;29;20445;-83
2022/11/02 07:29:47;;;;;;;5.83;5.33;;;9.30;99.90;;;;;;4936000;29;20727;-83
2022/11/02 07:32:14;;;;;;;6.63;5.97;;;9.60;99.90;;;;;;4936647;29;20222;-83
2022/11/02 07:34:40;;;;;;;10.23;9.53;;;9.80;99.90;;;;;;4937440;29;20202;-83
2022/11/02 07:37:07;;;;;;;5.90;5.43;;;10.00;99.90;;;;;;4936188;29;20336;-83
2022/11/02 07:39:34;;;;;;;5.43;4.93;;;10.20;99.90;;;;;;4936845;29;20203;-83
2022/11/02 07:42:01;;;;;;;12.20;11.40;;;10.30;99.90;;;;;;4935964;29;20215;-83
2022/11/02 07:44:29;;;;;;;11.90;11.13;;;10.60;99.90;;;;;;4929794;29;20791;-84
2022/11/02 07:46:56;;;;;;;11.70;10.93;;;10.70;99.90;;;;;;4936228;29;20624;-84
2022/11/02 07:49:24;;;;;;;11.77;11.03;;;10.90;99.90;;;;;;4935934;29;20274;-84
2022/11/02 07:51:51;;;;;;;12.57;11.77;;;11.00;99.90;;;;;;4934390;29;20235;-84
2022/11/02 07:54:17;;;;;;;12.00;11.10;;;11.10;99.90;;;;;;4940281;29;20210;-83
2022/11/02 07:56:45;;;;;;;12.10;11.20;;;11.20;99.90;;;;;;4935759;29;20223;-83
2022/11/02 07:59:12;;;;;;;12.00;11.10;;;11.20;99.90;;;;;;4935616;29;20291;-83
2022/11/02 08:01:40;;;;;;;5.57;5.03;;;11.20;99.90;;;;;;4936046;29;20260;-83
2022/11/02 08:04:07;;;;;;;7.10;6.50;;;11.20;99.90;;;;;;4937415;29;20653;-83
2022/11/02 08:06:35;;;;;;;10.00;9.30;;;11.20;99.90;;;;;;4935762;29;20200;-83
2022/11/02 08:09:02;;;;;;;12.30;11.50;;;11.40;99.90;;;;;;4935009;29;20204;-83
2022/11/02 08:11:29;;;;;;;12.10;11.20;;;11.50;99.90;;;;;;4934643;29;20227;-83
2022/11/02 08:13:56;;;;;;;10.07;9.20;;;11.70;99.90;;;;;;4936583;29;20867;-83
2022/11/02 08:16:23;;;;;;;12.20;11.40;;;11.80;99.90;;;;;;4935277;29;20219;-83
2022/11/02 08:18:51;;;;;;;9.27;8.53;;;11.80;99.90;;;;;;4935777;29;20205;-83
2022/11/02 08:21:18;;;;;;;8.00;7.13;;;11.80;99.90;;;;;;4934993;29;20229;-83
2022/11/02 08:23:45;;;;;;;8.07;6.93;;;11.90;99.90;;;;;;4935813;29;20234;-83
2022/11/02 08:26:12;;;;;;;8.73;8.03;;;11.90;99.90;;;;;;4935400;29;20201;-83
2022/11/02 08:28:40;;;;;;;11.67;10.77;;;12.00;99.90;;;;;;4938145;29;20212;-82
2022/11/02 08:31:07;;;;;;;12.23;11.33;;;12.40;99.90;;;;;;4937396;29;20310;-83
2022/11/02 08:33:34;;;;;;;12.07;10.90;;;12.80;99.90;;;;;;4936117;29;20730;-83
2022/11/02 08:36:03;;;;;;;12.07;10.97;;;13.00;99.90;;;;;;4934773;29;20227;-83
2022/11/02 08:38:31;;;;;;;11.40;10.30;;;13.20;99.90;;;;;;4927914;29;20202;-83
2022/11/02 08:40:58;;;;;;;11.60;10.80;;;13.40;99.90;;;;;;4935142;29;20221;-84
2022/11/02 08:43:25;;;;;;;9.70;8.90;;;13.40;99.90;;;;;;4936878;29;20202;-83
2022/11/02 08:45:52;;;;;;;8.27;7.57;;;13.50;99.90;;;;;;4935165;29;20199;-83
2022/11/02 08:48:19;;;;;;;9.50;8.70;;;13.40;99.90;;;;;;4935173;29;20243;-83
2022/11/02 08:50:48;;;;;;;11.63;10.63;;;13.40;99.90;;;;;;4935499;29;20219;-84
2022/11/02 08:53:16;;;;;;;11.30;10.60;;;13.40;99.90;;;;;;4935298;29;20577;-82
2022/11/02 08:55:43;;;;;;;12.10;10.90;;;13.30;99.90;;;;;;4934764;29;20219;-81
2022/11/02 08:58:11;;;;;;;11.67;10.87;;;13.30;99.90;;;;;;4935860;29;20200;-82
2022/11/02 09:00:38;;;;;;;11.17;10.27;;;13.30;99.90;;;;;;4934561;29;20759;-82
2022/11/02 09:03:06;;;;;;;8.33;7.80;;;13.50;99.90;;;;;;4935896;29;20265;-81
2022/11/02 09:05:35;;;;;;;11.53;10.63;;;13.60;99.90;;;;;;4934567;29;20199;-81
2022/11/02 09:08:04;;;;;;;10.07;9.10;;;13.70;99.90;;;;;;4935587;29;20200;-82
2022/11/02 09:10:35;;;;;;;10.20;9.40;;;13.90;99.90;;;;;;4916990;29;20193;-82
2022/11/02 09:13:03;;;;;;;10.13;9.43;;;14.10;99.90;;;;;;4917299;29;20188;-81
2022/11/02 09:15:32;;;;;;;8.40;7.70;;;14.20;99.90;;;;;;4934803;29;20285;-81
2022/11/02 09:17:59;;;;;;;8.43;7.70;;;14.30;99.90;;;;;;4931081;29;20201;-81
2022/11/02 09:20:26;;;;;;;10.17;9.27;;;14.50;99.90;;;;;;4936492;29;20205;-81
2022/11/02 09:22:53;;;;;;;10.10;9.40;;;14.70;99.90;;;;;;4939211;29;20197;-81
2022/11/02 09:25:20;;;;;;;6.13;3.60;;;14.90;99.90;;;;;;4937911;29;20270;-82
2022/11/02 09:27:53;;;;;;;5.30;4.80;;;15.00;99.90;;;;;;4938497;29;20421;-81
2022/11/02 09:30:20;;;;;;;10.53;9.73;;;15.00;99.90;;;;;;4938514;29;20564;-82
2022/11/02 09:32:53;;;;;;;7.57;3.63;;;15.10;99.90;;;;;;4937967;29;20603;-82
2022/11/02 09:35:20;;;;;;;5.70;4.03;;;15.30;99.90;;;;;;4939135;29;20190;-81
2022/11/02 09:37:47;;;;;;;4.93;3.93;;;15.50;99.90;;;;;;4938103;29;20227;-81
2022/11/02 09:40:16;;;;;;;7.23;6.60;;;15.70;99.90;;;;;;4937147;29;20205;-82
2022/11/02 09:42:53;;;;;;;5.87;3.07;;;15.60;99.90;;;;;;4937857;29;20227;-81
2022/11/02 09:45:22;;;;;;;5.27;3.00;;;15.80;99.90;;;;;;4939657;29;20209;-82
2022/11/02 09:47:53;;;;;;;7.60;6.80;;;15.90;99.90;;;;;;4937937;29;20202;-81
2022/11/02 09:50:23;;;;;;;7.53;3.00;;;15.90;99.90;;;;;;4937597;29;20206;-82
2022/11/02 09:52:53;;;;;;;9.77;8.50;;;15.90;99.90;;;;;;4938059;29;20207;-82
2022/11/02 09:55:26;;;;;;;6.60;3.10;;;15.80;99.90;;;;;;4937750;29;20889;-81
2022/11/02 09:57:59;;;;;;;11.27;10.33;;;15.90;99.90;;;;;;4938344;29;20207;-82
2022/11/02 10:00:32;;;;;;;10.80;7.27;;;15.80;99.90;;;;;;4938208;29;20223;-81
2022/11/02 10:03:07;;;;;;;5.90;3.27;;;15.70;99.90;;;;;;4933661;29;20207;-81
2022/11/02 10:05:41;;;;;;;5.30;2.73;;;15.70;99.90;;;;;;4935507;29;20198;-81
2022/11/02 10:08:23;;;;;;;6.67;2.90;;;15.70;99.90;;;;;;4938260;29;20226;-82
2022/11/02 10:11:01;;;;;;;5.47;3.23;;;15.70;99.90;;;;;;4937095;29;20321;-82
2022/11/02 10:13:38;;;;;;;4.30;2.80;;;15.70;99.90;;;;;;4929119;29;20205;-81
2022/11/02 10:16:13;;;;;;;5.50;3.80;;;15.70;99.90;;;;;;4937136;29;20226;-82
2022/11/02 10:18:41;;;;;;;5.13;3.30;;;15.60;99.90;;;;;;4936813;29;20199;-82
2022/11/02 10:21:12;;;;;;;5.80;3.10;;;15.60;99.90;;;;;;4938633;29;20742;-82
2022/11/02 10:23:42;;;;;;;5.60;3.47;;;15.50;99.90;;;;;;4936999;29;20661;-82
2022/11/02 10:26:17;;;;;;;3.80;2.53;;;15.60;99.90;;;;;;4936519;29;20209;-82
2022/11/02 10:28:48;;;;;;;3.37;2.73;;;15.60;99.90;;;;;;4935878;29;20214;-82
2022/11/02 10:31:23;;;;;;;7.07;6.00;;;15.70;99.90;;;;;;4937245;29;20219;-82
2022/11/02 10:33:50;;;;;;;7.53;6.83;;;15.70;99.90;;;;;;4935847;29;20205;-82
2022/11/02 10:36:36;;;;;;;8.77;8.03;;;15.90;99.90;;;;;;4936188;29;20725;-82
2022/11/02 10:39:16;;;;;;;8.10;6.23;;;15.90;99.90;;;;;;4937082;29;20199;-81
2022/11/02 10:42:17;;;;;;;3.63;2.83;;;16.00;99.90;;;;;;4937006;29;20234;-81
2022/11/02 10:45:33;;;;;;;7.13;4.20;;;16.00;99.90;;;;;;4927108;29;20203;-80
2022/11/02 10:48:07;;;;;;;9.63;8.83;;;16.10;99.90;;;;;;4930168;29;20218;-79
2022/11/02 10:50:46;;;;;;;10.20;9.30;;;16.10;99.90;;;;;;4928727;29;20202;-81
2022/11/02 10:53:14;;;;;;;8.80;8.20;;;16.10;99.90;;;;;;4937836;29;20207;-81
2022/11/02 10:55:53;;;;;;;3.33;2.60;;;16.10;99.90;;;;;;4935733;29;20703;-81
2022/11/02 10:58:21;;;;;;;4.87;2.80;;;16.20;99.90;;;;;;4935963;29;20207;-81
2022/11/02 11:00:50;;;;;;;9.30;6.63;;;16.20;99.90;;;;;;4934932;29;20230;-81
2022/11/02 11:03:19;;;;;;;3.27;2.70;;;16.20;99.90;;;;;;4935414;29;20202;-81
2022/11/02 11:05:58;;;;;;;4.93;2.87;;;16.20;99.90;;;;;;4935618;29;20230;-82
2022/11/02 11:08:36;;;;;;;4.47;2.80;;;16.20;99.90;;;;;;4935882;29;20297;-82
2022/11/02 11:11:17;;;;;;;3.93;2.90;;;16.20;99.90;;;;;;4936756;29;20228;-82
2022/11/02 11:13:52;;;;;;;4.40;2.80;;;16.20;99.90;;;;;;4936361;29;20563;-81
2022/11/02 11:16:22;;;;;;;3.93;2.70;;;16.30;99.90;;;;;;4935814;29;20739;-82
2022/11/02 11:18:51;;;;;;;2.90;2.37;;;16.40;99.90;;;;;;4935719;29;20203;-82
2022/11/02 11:21:18;;;;;;;4.37;3.00;;;16.50;99.90;;;;;;4935598;29;20223;-82
2022/11/02 11:23:45;;;;;;;4.00;2.70;;;16.60;99.90;;;;;;4936181;29;20210;-82
2022/11/02 11:26:27;;;;;;;2.97;2.20;;;16.60;99.90;;;;;;4937964;29;20563;-81
2022/11/02 11:28:56;;;;;;;3.30;2.47;;;16.50;99.90;;;;;;4933123;29;20213;-81
2022/11/02 11:31:24;;;;;;;4.27;2.30;;;16.50;99.90;;;;;;4935018;29;20660;-81
2022/11/02 11:33:53;;;;;;;4.10;2.53;;;16.40;99.90;;;;;;4936418;29;20205;-82
2022/11/02 11:36:23;;;;;;;3.40;2.57;;;16.40;99.90;;;;;;4936836;29;20207;-81
2022/11/02 11:38:51;;;;;;;3.63;2.77;;;16.40;99.90;;;;;;4935374;29;20214;-81
2022/11/02 11:41:18;;;;;;;2.80;2.60;;;16.30;99.90;;;;;;4935777;29;20223;-82
2022/11/02 11:43:48;;;;;;;2.20;2.10;;;16.40;99.90;;;;;;4936497;29;20210;-83
2022/11/02 11:46:16;;;;;;;6.80;6.17;;;16.30;99.90;;;;;;4937088;29;20616;-83
2022/11/02 11:48:47;;;;;;;6.90;6.30;;;16.30;99.90;;;;;;4935340;29;20209;-82
2022/11/02 11:51:31;;;;;;;3.63;2.67;;;16.20;99.90;;;;;;4935643;29;20226;-83
2022/11/02 11:54:06;;;;;;;6.83;3.23;;;16.20;99.90;;;;;;4931388;29;20205;-83
2022/11/02 11:56:33;;;;;;;4.60;3.20;;;16.00;99.90;;;;;;4933937;29;20235;-83
2022/11/02 11:59:00;;;;;;;4.17;3.10;;;15.80;99.90;;;;;;4934758;29;20203;-83
2022/11/02 12:01:37;;;;;;;4.70;2.60;;;15.70;99.90;;;;;;4935569;29;20236;-81
2022/11/02 12:04:04;;;;;;;6.60;5.20;;;15.60;99.90;;;;;;4934306;29;20210;-80
2022/11/02 12:06:39;;;;;;;8.63;3.80;;;15.40;99.90;;;;;;4934093;29;20209;-82
2022/11/02 12:09:16;;;;;;;8.80;8.30;;;15.30;99.90;;;;;;4934302;29;20210;-81
2022/11/02 12:11:57;;;;;;;5.03;3.60;;;15.20;99.90;;;;;;4936205;29;20756;-82
2022/11/02 12:14:41;;;;;;;4.90;3.43;;;15.10;99.90;;;;;;4936078;29;20198;-82
2022/11/02 12:17:35;;;;;;;4.87;4.40;;;15.10;99.90;;;;;;4936046;29;20222;-83
2022/11/02 12:20:28;;;;;;;7.17;6.77;;;15.00;99.90;;;;;;4932076;29;20207;-81
2022/11/02 12:23:05;;;;;;;4.90;4.50;;;15.10;99.90;;;;;;4936076;29;20336;-82
2022/11/02 12:25:48;;;;;;;4.80;4.40;;;15.10;99.90;;;;;;4935724;29;20199;-82
2022/11/02 12:28:31;;;;;;;8.50;7.90;;;15.10;99.90;;;;;;4934980;29;20211;-82
2022/11/02 12:31:06;;;;;;;9.23;8.60;;;15.10;99.90;;;;;;4935782;29;20215;-82
2022/11/02 12:33:44;;;;;;;9.60;8.93;;;15.20;99.90;;;;;;4934220;29;20207;-82
2022/11/02 12:36:24;;;;;;;9.97;8.17;;;15.10;99.90;;;;;;4933804;29;20205;-82
2022/11/02 12:39:02;;;;;;;9.50;8.77;;;15.10;99.90;;;;;;4935611;29;20599;-82
2022/11/02 12:41:45;;;;;;;9.20;8.60;;;15.10;99.90;;;;;;4934703;29;20306;-82
2022/11/02 12:44:31;;;;;;;9.83;9.23;;;15.10;99.90;;;;;;4933829;29;20287;-82
2022/11/02 12:47:06;;;;;;;9.80;9.00;;;15.10;99.90;;;;;;4935447;29;20202;-82
2022/11/02 12:49:42;;;;;;;9.50;8.70;;;15.00;99.90;;;;;;4932505;29;20210;-82
2022/11/02 12:52:26;;;;;;;9.60;8.90;;;15.10;99.90;;;;;;4933551;29;20247;-82
2022/11/02 12:54:58;;;;;;;9.07;8.53;;;15.00;99.90;;;;;;4934584;29;20594;-82
2022/11/02 12:57:29;;;;;;;10.30;9.60;;;14.80;99.90;;;;;;4936563;29;20211;-82
2022/11/02 13:00:01;;;;;;;10.73;9.70;;;14.70;99.90;;;;;;4939548;29;20210;-82
2022/11/02 13:02:32;;;;;;;10.60;9.80;;;14.60;99.90;;;;;;4937368;29;20742;-82
2022/11/02 13:05:03;;;;;;;9.87;9.17;;;14.60;99.90;;;;;;4938716;29;20204;-82
2022/11/02 13:07:36;;;;;;;9.67;9.07;;;14.60;99.90;;;;;;4937099;29;20255;-82
2022/11/02 13:10:09;;;;;;;9.97;9.27;;;14.60;99.90;;;;;;4942345;29;20722;-82
2022/11/02 13:12:37;;;;;;;9.50;8.90;;;14.60;99.90;;;;;;4935761;29;20232;-82
2022/11/02 13:15:06;;;;;;;10.17;9.37;;;14.50;99.90;;;;;;4938661;29;20197;-84
2022/11/02 13:17:38;;;;;;;9.97;9.27;;;14.50;99.90;;;;;;4942445;29;20226;-84
2022/11/02 13:20:13;;;;;;;4.20;3.80;;;14.50;99.90;;;;;;4939799;29;20197;-84
2022/11/02 13:22:43;;;;;;;4.17;3.87;;;14.50;99.90;;;;;;4938727;29;20233;-81
2022/11/02 13:25:17;;;;;;;4.10;3.80;;;14.40;99.90;;;;;;4938863;29;20555;-82
2022/11/02 13:27:49;;;;;;;10.30;9.60;;;14.40;99.90;;;;;;4939695;29;20198;-82
2022/11/02 13:30:18;;;;;;;9.50;8.90;;;14.40;99.90;;;;;;4939920;29;20209;-81
2022/11/02 13:32:48;;;;;;;10.90;10.20;;;14.50;99.90;;;;;;4939356;29;20270;-83
2022/11/02 13:35:20;;;;;;;10.63;9.83;;;14.40;99.90;;;;;;4938273;29;20616;-84
2022/11/02 13:37:52;;;;;;;4.33;3.90;;;14.30;99.90;;;;;;4937819;29;20223;-84
2022/11/02 13:40:25;;;;;;;8.40;7.77;;;14.30;99.90;;;;;;4938493;29;20205;-83
2022/11/02 13:43:18;;;;;;;10.33;9.63;;;14.30;99.90;;;;;;4938407;29;20201;-84
2022/11/02 13:46:04;;;;;;;11.20;10.07;;;14.30;99.90;;;;;;4931884;29;20302;-84
2022/11/02 13:48:52;;;;;;;10.77;9.87;;;14.30;99.90;;;;;;4930571;29;20691;-84
2022/11/02 13:51:25;;;;;;;10.60;10.00;;;14.30;99.90;;;;;;4932753;29;20230;-84
2022/11/02 13:53:55;;;;;;;9.60;8.90;;;14.40;99.90;;;;;;4939417;29;20216;-84
2022/11/02 13:56:25;;;;;;;9.60;9.00;;;14.40;99.90;;;;;;4938526;29;20214;-84
2022/11/02 13:59:02;;;;;;;9.47;8.97;;;14.40;99.90;;;;;;4939785;29;20224;-85
2022/11/02 14:01:32;;;;;;;9.07;8.47;;;14.50;99.90;;;;;;4932538;29;20235;-84
2022/11/02 14:04:04;;;;;;;9.30;8.70;;;14.60;99.90;;;;;;4940179;29;20201;-84
2022/11/02 14:06:33;;;;;;;9.03;8.50;;;14.70;99.90;;;;;;4931473;29;20291;-84
2022/11/02 14:09:02;;;;;;;8.30;7.60;;;14.80;99.90;;;;;;4934975;29;20252;-84
2022/11/02 14:11:47;;;;;;;9.43;8.80;;;14.80;99.90;;;;;;4938565;29;20216;-84
2022/11/02 14:14:24;;;;;;;2.80;2.13;;;14.90;99.90;;;;;;4937678;29;20608;-84
2022/11/02 14:16:59;;;;;;;2.70;2.45;;;15.00;99.90;;;;;;4939777;29;20663;-85
2022/11/02 14:19:32;;;;;;;2.50;2.30;;;15.10;99.90;;;;;;4937232;29;20215;-83
2022/11/02 14:22:09;;;;;;;8.43;7.67;;;15.10;99.90;;;;;;4937439;29;20223;-84
2022/11/02 14:25:14;;;;;;;9.60;8.90;;;15.20;99.90;;;;;;4932926;29;20654;-84
2022/11/02 14:27:43;;;;;;;3.23;2.53;;;15.30;99.90;;;;;;4931352;29;20215;-84
2022/11/02 14:30:44;;;;;;;2.37;2.13;;;15.30;99.90;;;;;;4937376;29;20261;-83
2022/11/02 14:33:55;;;;;;;2.43;2.23;;;15.20;99.90;;;;;;4938535;29;20204;-84
2022/11/02 14:36:42;;;;;;;4.47;2.40;;;15.10;99.90;;;;;;4936546;29;20210;-84
2022/11/02 14:39:18;;;;;;;3.03;2.33;;;15.00;99.90;;;;;;4938799;29;20223;-84
2022/11/02 14:42:06;;;;;;;4.40;2.37;;;14.90;99.90;;;;;;4938434;29;20215;-83
2022/11/02 14:44:54;;;;;;;4.80;2.50;;;15.00;99.90;;;;;;4936166;29;20599;-82
2022/11/02 14:47:27;;;;;;;2.87;2.37;;;15.00;99.90;;;;;;4938194;29;20255;-79
2022/11/02 14:49:58;;;;;;;2.50;2.20;;;14.90;99.90;;;;;;4933130;29;20592;-82
2022/11/02 14:52:27;;;;;;;2.50;2.30;;;14.90;99.90;;;;;;4939999;29;20748;-81
2022/11/02 14:55:01;;;;;;;3.27;2.60;;;14.90;99.90;;;;;;4935792;29;20208;-83
2022/11/02 14:57:31;;;;;;;2.40;2.20;;;14.80;99.90;;;;;;4953433;28;20720;-84
2022/11/02 15:00:02;;;;;;;3.93;3.30;;;14.60;99.90;;;;;;4933155;29;20208;-84
2022/11/02 15:02:33;;;;;;;8.27;7.50;;;14.50;99.90;;;;;;4929488;29;20224;-84
2022/11/02 15:05:03;;;;;;;8.63;8.13;;;14.40;99.90;;;;;;4927832;29;20207;-84
2022/11/02 15:07:36;;;;;;;9.43;8.70;;;14.40;99.90;;;;;;4928237;29;20260;-83
2022/11/02 15:10:07;;;;;;;9.07;8.57;;;14.40;99.90;;;;;;4943319;28;20211;-85
2022/11/02 15:12:37;;;;;;;9.80;9.20;;;14.40;99.90;;;;;;4936695;29;20236;-84
2022/11/02 15:15:31;;;;;;;5.13;4.73;;;14.30;99.90;;;;;;4929042;29;20209;-84
2022/11/02 15:18:16;;;;;;;10.50;9.80;;;14.20;99.90;;;;;;4922050;29;20233;-84
2022/11/02 15:20:43;;;;;;;10.43;9.63;;;14.10;99.90;;;;;;4925615;29;20206;-83
2022/11/02 15:23:22;;;;;;;10.70;9.90;;;14.00;99.90;;;;;;4936740;29;20214;-84
2022/11/02 15:25:51;;;;;;;9.03;8.43;;;13.90;99.90;;;;;;4931887;29;20206;-84
2022/11/02 15:28:23;;;;;;;9.53;8.60;;;13.80;99.90;;;;;;4936946;29;20200;-83
2022/11/02 15:30:53;;;;;;;9.33;8.63;;;13.70;99.90;;;;;;4937096;29;20641;-84
2022/11/02 15:33:30;;;;;;;9.50;8.80;;;13.60;99.90;;;;;;4936282;29;20211;-84
2022/11/02 15:35:59;;;;;;;9.37;8.77;;;13.50;99.90;;;;;;4932483;29;20207;-83
2022/11/02 15:38:28;;;;;;;9.07;8.47;;;13.50;99.90;;;;;;4936184;29;20224;-83
2022/11/02 15:41:08;;;;;;;9.87;9.07;;;13.40;99.90;;;;;;4936659;29;20310;-84
2022/11/02 15:43:57;;;;;;;9.33;8.77;;;13.30;99.90;;;;;;4937235;29;20196;-83
2022/11/02 15:46:38;;;;;;;9.80;9.20;;;13.20;99.90;;;;;;4935752;29;20204;-84
2022/11/02 15:49:18;;;;;;;9.43;8.83;;;13.10;99.90;;;;;;4936522;29;20572;-83
2022/11/02 15:51:54;;;;;;;9.93;9.33;;;13.00;99.90;;;;;;4937419;29;20214;-83
2022/11/02 15:54:36;;;;;;;10.20;9.40;;;12.90;99.90;;;;;;4936337;29;20213;-83
2022/11/02 15:57:13;;;;;;;10.50;9.90;;;12.90;99.90;;;;;;4933111;29;20203;-83
2022/11/02 16:00:03;;;;;;;10.63;10.03;;;12.80;99.90;;;;;;4936189;29;20226;-84
2022/11/02 16:02:39;;;;;;;11.00;10.30;;;12.70;99.90;;;;;;4930173;29;20233;-83
2022/11/02 16:05:07;;;;;;;11.10;10.30;;;12.60;99.90;;;;;;4937482;29;20211;-83
2022/11/02 16:07:36;;;;;;;10.63;9.93;;;12.50;99.90;;;;;;4936478;29;20210;-83
2022/11/02 16:10:21;;;;;;;10.00;9.30;;;12.40;99.90;;;;;;4936670;29;20239;-81
2022/11/02 16:12:56;;;;;;;10.50;9.60;;;12.30;99.90;;;;;;4935912;29;20232;-87
2022/11/02 16:15:23;;;;;;;9.97;9.27;;;12.20;99.90;;;;;;4935642;29;20210;-86
2022/11/02 16:17:52;;;;;;;9.83;9.23;;;12.20;99.90;;;;;;4935943;29;20222;-86
2022/11/02 16:20:21;;;;;;;10.30;9.50;;;12.10;99.90;;;;;;4936500;29;20261;-85
2022/11/02 16:22:49;;;;;;;11.10;10.30;;;12.00;99.90;;;;;;4935993;29;20263;-83